createdAt,value
2018-05-14T00:00:12.989Z,88.8
2018-05-14T00:01:21.855Z,88.9
2018-05-14T00:02:31.080Z,89.28
2018-05-14T00:03:40.015Z,89.14
2018-05-14T00:04:48.803Z,89.14
2018-05-14T00:05:57.667Z,89.37
2018-05-14T00:07:06.530Z,88.99
2018-05-14T00:08:15.388Z,89.28
2018-05-14T00:09:24.250Z,88.95
2018-05-14T00:10:33.392Z,88.9
2018-05-14T00:11:42.302Z,89.14
2018-05-14T00:12:51.163Z,89.04
2018-05-14T00:14:00.028Z,89.04
2018-05-14T00:15:08.885Z,89.14
2018-05-14T00:16:17.747Z,88.95
2018-05-14T00:17:27.038Z,88.85
2018-05-14T00:18:35.903Z,88.85
2018-05-14T00:19:44.764Z,88.85
2018-05-14T00:20:53.908Z,89.04
2018-05-14T00:22:02.771Z,89.14
2018-05-14T00:23:11.779Z,89.52
2018-05-14T00:24:20.640Z,89.52
2018-05-14T00:25:29.501Z,89.04
2018-05-14T00:26:38.368Z,89.52
2018-05-14T00:27:47.583Z,89.62
2018-05-14T00:28:56.368Z,89.52
2018-05-14T00:30:05.229Z,89.43
2018-05-14T00:31:14.092Z,89.72
2018-05-14T00:32:22.956Z,89.52
2018-05-14T00:33:32.100Z,89.52
2018-05-14T00:34:41.063Z,89.14
2018-05-14T00:35:49.925Z,89.52
2018-05-14T00:36:58.785Z,89.23
2018-05-14T00:38:07.708Z,89.29
2018-05-14T00:39:16.568Z,89.81
2018-05-14T00:40:25.429Z,89.62
2018-05-14T00:41:34.292Z,89.58
2018-05-14T00:42:43.156Z,89.76
2018-05-14T00:43:52.299Z,89.14
2018-05-14T00:45:01.160Z,89.67
2018-05-14T00:46:10.075Z,89.38
2018-05-14T00:47:19.218Z,89.19
2018-05-14T00:48:28.361Z,89.09
2018-05-14T00:49:37.221Z,89.48
2018-05-14T00:50:46.083Z,89.67
2018-05-14T00:51:54.942Z,89.58
2018-05-14T00:53:04.355Z,89.95
2018-05-14T00:54:13.215Z,89.38
2018-05-14T00:55:22.351Z,89.48
2018-05-14T00:56:31.213Z,89.58
2018-05-14T00:57:40.173Z,89.67
2018-05-14T00:58:49.335Z,89.38
2018-05-14T00:59:58.194Z,89.76
2018-05-14T01:01:07.054Z,89.48
2018-05-14T01:02:15.914Z,90.05
2018-05-14T01:03:24.827Z,90.34
2018-05-14T01:04:33.689Z,90.24
2018-05-14T01:05:43.101Z,89.67
2018-05-14T01:06:51.962Z,89.29
2018-05-14T01:08:00.821Z,89.38
2018-05-14T01:09:10.042Z,89.67
2018-05-14T01:10:19.181Z,89.58
2018-05-14T01:11:28.605Z,89.48
2018-05-14T01:12:37.463Z,90.1
2018-05-14T01:13:46.326Z,89.86
2018-05-14T01:14:55.613Z,89.76
2018-05-14T01:16:04.475Z,89.86
2018-05-14T01:17:13.334Z,89.86
2018-05-14T01:18:22.196Z,89.86
2018-05-14T01:19:31.337Z,90.15
2018-05-14T01:20:40.246Z,90.15
2018-05-14T01:21:49.108Z,90.15
2018-05-14T01:22:57.968Z,90.01
2018-05-14T01:24:06.833Z,90.05
2018-05-14T01:25:15.691Z,89.91
2018-05-14T01:26:25.079Z,90.1
2018-05-14T01:27:33.939Z,89.62
2018-05-14T01:28:42.801Z,90.3
2018-05-14T01:29:51.942Z,90.39
2018-05-14T01:31:00.804Z,89.81
2018-05-14T01:32:09.941Z,89.81
2018-05-14T01:33:18.800Z,90.1
2018-05-14T01:34:27.659Z,89.81
2018-05-14T01:35:36.522Z,89.72
2018-05-14T01:36:45.383Z,90.2
2018-05-14T01:37:54.291Z,90.3
2018-05-14T01:39:03.429Z,90.01
2018-05-14T01:40:12.289Z,89.81
2018-05-14T01:41:21.159Z,90.3
2018-05-14T01:42:30.575Z,90.39
2018-05-14T01:43:39.785Z,90.1
2018-05-14T01:44:48.647Z,90.39
2018-05-14T01:45:57.509Z,90.1
2018-05-14T01:47:06.367Z,90.3
2018-05-14T01:48:15.225Z,90.1
2018-05-14T01:49:24.337Z,90.39
2018-05-14T01:50:33.196Z,90.39
2018-05-14T01:51:42.057Z,90.58
2018-05-14T01:52:50.918Z,90.58
2018-05-14T01:53:59.778Z,90.1
2018-05-14T01:55:08.790Z,90.48
2018-05-14T01:56:17.651Z,90.67
2018-05-14T01:57:26.797Z,90.73
2018-05-14T01:58:35.659Z,90.73
2018-05-14T01:59:44.519Z,90.53
2018-05-14T02:00:53.527Z,90.73
2018-05-14T02:02:02.947Z,90.73
2018-05-14T02:03:11.808Z,90.63
2018-05-14T02:04:20.668Z,90.63
2018-05-14T02:05:29.529Z,90.63
2018-05-14T02:06:38.741Z,90.44
2018-05-14T02:07:47.605Z,90.92
2018-05-14T02:08:56.465Z,90.53
2018-05-14T02:10:05.604Z,90.92
2018-05-14T02:11:15.029Z,90.53
2018-05-14T02:12:24.523Z,90.82
2018-05-14T02:13:33.385Z,90.53
2018-05-14T02:14:42.524Z,90.63
2018-05-14T02:15:51.663Z,90.92
2018-05-14T02:17:00.519Z,90.63
2018-05-14T02:18:09.702Z,90.53
2018-05-14T02:19:18.563Z,90.73
2018-05-14T02:20:27.422Z,90.63
2018-05-14T02:21:36.567Z,90.44
2018-05-14T02:22:45.427Z,90.73
2018-05-14T02:23:54.577Z,90.25
2018-05-14T02:25:03.436Z,90.63
2018-05-14T02:26:12.575Z,90.53
2018-05-14T02:27:21.435Z,90.63
2018-05-14T02:28:30.295Z,90.63
2018-05-14T02:29:39.208Z,90.73
2018-05-14T02:30:48.345Z,90.73
2018-05-14T02:31:57.481Z,90.53
2018-05-14T02:33:06.348Z,90.92
2018-05-14T02:34:15.211Z,91.2
2018-05-14T02:35:24.504Z,90.44
2018-05-14T02:36:33.644Z,90.63
2018-05-14T02:37:43.074Z,90.53
2018-05-14T02:38:51.934Z,90.63
2018-05-14T02:40:00.797Z,90.73
2018-05-14T02:41:09.942Z,90.73
2018-05-14T02:42:18.802Z,90.63
2018-05-14T02:43:27.942Z,90.82
2018-05-14T02:44:36.805Z,90.44
2018-05-14T02:45:45.944Z,90.3
2018-05-14T02:46:55.084Z,90.92
2018-05-14T02:48:03.947Z,90.68
2018-05-14T02:49:12.808Z,90.88
2018-05-14T02:50:22.219Z,90.49
2018-05-14T02:51:31.081Z,90.97
2018-05-14T02:52:40.096Z,91.06
2018-05-14T02:53:49.521Z,90.68
2018-05-14T02:54:58.385Z,90.97
2018-05-14T02:56:07.521Z,90.78
2018-05-14T02:57:16.384Z,91.74
2018-05-14T02:58:25.580Z,91.54
2018-05-14T02:59:35.002Z,91.83
2018-05-14T03:00:44.421Z,91.35
2018-05-14T03:01:53.285Z,91.54
2018-05-14T03:03:02.144Z,91.35
2018-05-14T03:04:11.534Z,91.64
2018-05-14T03:05:20.674Z,91.25
2018-05-14T03:06:29.814Z,91.64
2018-05-14T03:07:38.958Z,91.54
2018-05-14T03:08:47.820Z,91.64
2018-05-14T03:09:56.970Z,91.83
2018-05-14T03:11:06.392Z,90.97
2018-05-14T03:12:15.252Z,90.39
2018-05-14T03:13:24.111Z,91.35
2018-05-14T03:14:32.971Z,91.06
2018-05-14T03:15:41.985Z,90.88
2018-05-14T03:16:50.853Z,91.83
2018-05-14T03:17:59.714Z,91.06
2018-05-14T03:19:08.573Z,91.35
2018-05-14T03:20:17.432Z,91.64
2018-05-14T03:21:26.542Z,91.45
2018-05-14T03:22:35.398Z,91.35
2018-05-14T03:23:44.257Z,91.16
2018-05-14T03:24:53.117Z,91.54
2018-05-14T03:26:02.045Z,91.25
2018-05-14T03:27:10.989Z,91.45
2018-05-14T03:28:19.847Z,91.54
2018-05-14T03:29:28.707Z,90.78
2018-05-14T03:30:37.574Z,90.68
2018-05-14T03:31:46.715Z,91.16
2018-05-14T03:32:56.211Z,91.06
2018-05-14T03:34:05.073Z,91.35
2018-05-14T03:35:13.934Z,91.74
2018-05-14T03:36:22.791Z,91.83
2018-05-14T03:37:31.651Z,91.54
2018-05-14T03:38:40.560Z,91.54
2018-05-14T03:39:49.696Z,91.45
2018-05-14T03:40:58.558Z,91.64
2018-05-14T03:42:07.416Z,91.54
2018-05-14T03:43:16.279Z,91.25
2018-05-14T03:44:25.467Z,91.54
2018-05-14T03:45:34.272Z,92.02
2018-05-14T03:46:43.136Z,91.93
2018-05-14T03:47:51.997Z,91.93
2018-05-14T03:49:00.858Z,91.35
2018-05-14T03:50:10.379Z,91.54
2018-05-14T03:51:19.238Z,91.25
2018-05-14T03:52:28.099Z,91.74
2018-05-14T03:53:36.956Z,91.25
2018-05-14T03:54:45.818Z,91.16
2018-05-14T03:55:54.728Z,91.35
2018-05-14T03:57:03.587Z,91.35
2018-05-14T03:58:12.726Z,91.74
2018-05-14T03:59:21.585Z,91.54
2018-05-14T04:00:31.018Z,91.64
2018-05-14T04:01:40.226Z,91.45
2018-05-14T04:02:49.087Z,90.78
2018-05-14T04:03:58.228Z,91.74
2018-05-14T04:05:07.089Z,90.78
2018-05-14T04:06:16.225Z,90.49
2018-05-14T04:07:25.363Z,90.88
2018-05-14T04:08:34.224Z,91.74
2018-05-14T04:09:43.370Z,91.16
2018-05-14T04:10:52.228Z,90.88
2018-05-14T04:12:01.095Z,90.3
2018-05-14T04:13:10.399Z,90.97
2018-05-14T04:14:19.534Z,91.16
2018-05-14T04:15:28.397Z,91.16
2018-05-14T04:16:37.344Z,91.16
2018-05-14T04:17:46.440Z,90.39
2018-05-14T04:18:55.399Z,90.88
2018-05-14T04:20:04.537Z,91.54
2018-05-14T04:21:13.396Z,91.54
2018-05-14T04:22:22.256Z,91.35
2018-05-14T04:23:31.117Z,91.16
2018-05-14T04:24:39.975Z,90.59
2018-05-14T04:25:48.857Z,90.49
2018-05-14T04:26:57.699Z,90.88
2018-05-14T04:28:06.559Z,90.78
2018-05-14T04:29:15.421Z,91.54
2018-05-14T04:30:24.283Z,91.16
2018-05-14T04:31:33.425Z,91.16
2018-05-14T04:32:42.287Z,90.49
2018-05-14T04:33:51.148Z,90.49
2018-05-14T04:35:00.290Z,90.3
2018-05-14T04:36:09.582Z,90.97
2018-05-14T04:37:18.447Z,90.3
2018-05-14T04:38:27.589Z,90.68
2018-05-14T04:39:36.451Z,90.59
2018-05-14T04:40:45.310Z,90.49
2018-05-14T04:41:54.222Z,90.88
2018-05-14T04:43:03.081Z,90.68
2018-05-14T04:44:11.943Z,90.88
2018-05-14T04:45:21.081Z,90.97
2018-05-14T04:46:29.945Z,90.68
2018-05-14T04:47:38.955Z,90.44
2018-05-14T04:48:47.816Z,90.73
2018-05-14T04:49:56.687Z,90.59
2018-05-14T04:51:05.582Z,90.82
2018-05-14T04:52:14.443Z,90.44
2018-05-14T04:53:23.458Z,90.53
2018-05-14T04:54:32.316Z,90.53
2018-05-14T04:55:41.459Z,90.63
2018-05-14T04:56:50.319Z,90.63
2018-05-14T04:57:59.184Z,90.92
2018-05-14T04:59:08.459Z,90.82
2018-05-14T05:00:17.610Z,90.44
2018-05-14T05:01:26.470Z,90.53
2018-05-14T05:02:35.609Z,90.92
2018-05-14T05:03:44.469Z,90.82
2018-05-14T05:04:53.681Z,90.73
2018-05-14T05:06:02.822Z,90.53
2018-05-14T05:07:11.682Z,90.63
2018-05-14T05:08:20.542Z,90.82
2018-05-14T05:09:29.405Z,90.63
2018-05-14T05:10:38.414Z,90.73
2018-05-14T05:11:47.277Z,90.73
2018-05-14T05:12:56.138Z,90.73
2018-05-14T05:14:04.998Z,90.82
2018-05-14T05:15:14.138Z,90.63
2018-05-14T05:16:23.347Z,90.92
2018-05-14T05:17:32.488Z,90.92
2018-05-14T05:18:41.352Z,90.63
2018-05-14T05:19:50.216Z,90.53
2018-05-14T05:20:59.358Z,90.82
2018-05-14T05:22:08.546Z,90.73
2018-05-14T05:23:17.407Z,90.63
2018-05-14T05:24:26.272Z,90.63
2018-05-14T05:25:35.132Z,90.44
2018-05-14T05:26:43.992Z,90.73
2018-05-14T05:27:53.283Z,90.44
2018-05-14T05:29:02.144Z,90.58
2018-05-14T05:30:11.007Z,90.53
2018-05-14T05:31:20.151Z,90.53
2018-05-14T05:32:29.868Z,90.58
2018-05-14T05:33:39.161Z,90.53
2018-05-14T05:34:48.306Z,90.67
2018-05-14T05:35:57.458Z,90.96
2018-05-14T05:37:06.321Z,90.2
2018-05-14T05:38:15.181Z,90.77
2018-05-14T05:39:24.194Z,90.77
2018-05-14T05:40:33.338Z,90.87
2018-05-14T05:41:42.205Z,90.87
2018-05-14T05:42:51.070Z,90.87
2018-05-14T05:43:59.935Z,90.77
2018-05-14T05:45:09.281Z,90.58
2018-05-14T05:46:18.797Z,90.48
2018-05-14T05:47:27.658Z,90.77
2018-05-14T05:48:36.523Z,90.58
2018-05-14T05:49:45.388Z,90.91
2018-05-14T05:50:54.296Z,90.77
2018-05-14T05:52:03.433Z,91.06
2018-05-14T05:53:12.293Z,90.91
2018-05-14T05:54:21.433Z,90.82
2018-05-14T05:55:30.299Z,91.11
2018-05-14T05:56:39.313Z,90.82
2018-05-14T05:57:48.774Z,91.2
2018-05-14T05:58:57.635Z,90.91
2018-05-14T06:00:06.497Z,91.11
2018-05-14T06:01:15.446Z,91.68
2018-05-14T06:02:24.370Z,91.58
2018-05-14T06:03:33.230Z,91.3
2018-05-14T06:04:42.101Z,91.3
2018-05-14T06:05:51.886Z,90.67
2018-05-14T06:07:00.662Z,90.96
2018-05-14T06:08:10.432Z,90.86
2018-05-14T06:09:19.302Z,91.68
2018-05-14T06:10:28.161Z,91.44
2018-05-14T06:11:37.022Z,91.82
2018-05-14T06:12:45.890Z,91.34
2018-05-14T06:13:54.906Z,92.11
2018-05-14T06:15:03.789Z,91.72
2018-05-14T06:16:12.650Z,92.11
2018-05-14T06:17:22.343Z,92.4
2018-05-14T06:18:31.206Z,91.72
2018-05-14T06:19:40.417Z,92.11
2018-05-14T06:20:49.280Z,92.49
2018-05-14T06:21:58.147Z,92.01
2018-05-14T06:23:07.293Z,91.58
2018-05-14T06:24:16.432Z,91.96
2018-05-14T06:25:25.442Z,92.25
2018-05-14T06:26:34.305Z,91.77
2018-05-14T06:27:43.444Z,91.77
2018-05-14T06:28:52.870Z,92.06
2018-05-14T06:30:01.731Z,91.77
2018-05-14T06:31:10.893Z,92.06
2018-05-14T06:32:20.032Z,92.06
2018-05-14T06:33:29.170Z,92.06
2018-05-14T06:34:38.032Z,92.25
2018-05-14T06:35:46.975Z,91.82
2018-05-14T06:36:55.860Z,92.3
2018-05-14T06:38:04.723Z,91.82
2018-05-14T06:39:14.424Z,90.86
2018-05-14T06:40:23.564Z,92.1
2018-05-14T06:41:32.707Z,91.24
2018-05-14T06:42:42.003Z,91.05
2018-05-14T06:43:50.864Z,92.49
2018-05-14T06:44:59.728Z,91.91
2018-05-14T06:46:08.867Z,92.2
2018-05-14T06:47:17.731Z,91.82
2018-05-14T06:48:26.597Z,93.06
2018-05-14T06:49:35.732Z,92.1
2018-05-14T06:50:44.594Z,91.28
2018-05-14T06:51:53.457Z,91.77
2018-05-14T06:53:02.601Z,91
2018-05-14T06:54:12.078Z,91.57
2018-05-14T06:55:21.219Z,92.15
2018-05-14T06:56:30.084Z,91.28
2018-05-14T06:57:39.506Z,91.86
2018-05-14T06:58:48.367Z,91.48
2018-05-14T06:59:57.328Z,91.86
2018-05-14T07:01:06.192Z,91.57
2018-05-14T07:02:15.764Z,91.09
2018-05-14T07:03:24.471Z,91.42
2018-05-14T07:04:33.610Z,91.62
2018-05-14T07:05:42.523Z,91.81
2018-05-14T07:06:51.387Z,92.1
2018-05-14T07:08:00.252Z,90.56
2018-05-14T07:09:09.113Z,90.85
2018-05-14T07:10:18.250Z,91.33
2018-05-14T07:11:27.266Z,90.95
2018-05-14T07:12:36.499Z,90.66
2018-05-14T07:13:45.361Z,91.52
2018-05-14T07:14:54.503Z,91.72
2018-05-14T07:16:03.368Z,90.85
2018-05-14T07:17:12.276Z,91.19
2018-05-14T07:18:21.143Z,90.9
2018-05-14T07:19:30.004Z,90.52
2018-05-14T07:20:38.871Z,90.42
2018-05-14T07:21:47.729Z,89.75
2018-05-14T07:22:56.845Z,89.94
2018-05-14T07:24:05.986Z,90.42
2018-05-14T07:25:14.848Z,90.7
2018-05-14T07:26:23.989Z,90.8
2018-05-14T07:27:33.130Z,89.84
2018-05-14T07:28:42.425Z,89.55
2018-05-14T07:29:51.287Z,89.5
2018-05-14T07:31:00.426Z,89.02
2018-05-14T07:32:09.290Z,88.73
2018-05-14T07:33:18.153Z,88.73
2018-05-14T07:34:27.366Z,88.93
2018-05-14T07:35:36.228Z,88.64
2018-05-14T07:36:45.093Z,88.3
2018-05-14T07:37:54.231Z,88.87
2018-05-14T07:39:03.098Z,88.83
2018-05-14T07:40:12.492Z,89.64
2018-05-14T07:41:21.359Z,89.83
2018-05-14T07:42:30.219Z,88.39
2018-05-14T07:43:39.085Z,88.78
2018-05-14T07:44:47.944Z,89.36
2018-05-14T07:45:57.203Z,89.83
2018-05-14T07:47:06.347Z,90.7
2018-05-14T07:48:15.210Z,91.37
2018-05-14T07:49:24.072Z,90.41
2018-05-14T07:50:33.216Z,91.04
2018-05-14T07:51:42.182Z,89.74
2018-05-14T07:52:51.318Z,90.22
2018-05-14T07:54:00.181Z,90.51
2018-05-14T07:55:09.324Z,90.7
2018-05-14T07:56:18.187Z,90.31
2018-05-14T07:57:27.101Z,90.6
2018-05-14T07:58:35.968Z,90.22
2018-05-14T07:59:44.827Z,90.22
2018-05-14T08:00:53.972Z,89.74
2018-05-14T08:02:02.837Z,90.03
2018-05-14T08:03:11.974Z,89.54
2018-05-14T08:04:20.843Z,89.45
2018-05-14T08:05:30.049Z,89.54
2018-05-14T08:06:38.862Z,89.88
2018-05-14T08:07:47.725Z,88.82
2018-05-14T08:08:56.637Z,88.63
2018-05-14T08:10:05.502Z,89.4
2018-05-14T08:11:14.367Z,87.96
2018-05-14T08:12:23.789Z,87.71
2018-05-14T08:13:33.186Z,88
2018-05-14T08:14:41.945Z,89.06
2018-05-14T08:15:51.361Z,89.06
2018-05-14T08:17:00.227Z,88.48
2018-05-14T08:18:09.098Z,87.81
2018-05-14T08:19:17.962Z,87.62
2018-05-14T08:20:27.172Z,87.81
2018-05-14T08:21:36.040Z,86.27
2018-05-14T08:22:45.180Z,87.18
2018-05-14T08:23:54.047Z,88.04
2018-05-14T08:25:02.911Z,87.76
2018-05-14T08:26:12.783Z,87.42
2018-05-14T08:27:21.648Z,87.23
2018-05-14T08:28:30.792Z,86.65
2018-05-14T08:29:39.931Z,86.31
2018-05-14T08:30:48.796Z,86.41
2018-05-14T08:31:57.889Z,86.79
2018-05-14T08:33:06.674Z,87.56
2018-05-14T08:34:15.536Z,86.51
2018-05-14T08:35:24.402Z,86.6
2018-05-14T08:36:33.267Z,85.74
2018-05-14T08:37:42.282Z,85.44
2018-05-14T08:38:51.146Z,85.16
2018-05-14T08:40:00.292Z,83.81
2018-05-14T08:41:09.154Z,84.62
2018-05-14T08:42:18.105Z,83.18
2018-05-14T08:43:27.778Z,83.18
2018-05-14T08:44:36.642Z,83.37
2018-05-14T08:45:45.513Z,85
2018-05-14T08:46:54.374Z,83.18
2018-05-14T08:48:03.577Z,83.28
2018-05-14T08:49:12.432Z,83.56
2018-05-14T08:50:21.293Z,84.09
2018-05-14T08:51:30.157Z,82.83
2018-05-14T08:52:39.023Z,84.28
2018-05-14T08:53:47.886Z,83.12
2018-05-14T08:54:57.008Z,82.83
2018-05-14T08:56:05.875Z,82.83
2018-05-14T08:57:14.741Z,82.78
2018-05-14T08:58:23.607Z,82.97
2018-05-14T08:59:32.751Z,83.22
2018-05-14T09:00:42.321Z,83.41
2018-05-14T09:01:51.471Z,83.22
2018-05-14T09:03:00.632Z,82.74
2018-05-14T09:04:09.776Z,82.68
2018-05-14T09:05:18.926Z,84.61
2018-05-14T09:06:28.220Z,82.49
2018-05-14T09:07:37.091Z,80.08
2018-05-14T09:08:46.630Z,79.93
2018-05-14T09:09:55.488Z,79.44
2018-05-14T09:11:04.646Z,80.12
2018-05-14T09:12:13.759Z,79.35
2018-05-14T09:13:22.623Z,78.71
2018-05-14T09:14:31.763Z,79.49
2018-05-14T09:15:40.627Z,78.23
2018-05-14T09:16:49.494Z,77.75
2018-05-14T09:17:58.737Z,78.36
2018-05-14T09:19:07.876Z,77.98
2018-05-14T09:20:16.744Z,76.88
2018-05-14T09:21:25.884Z,76.92
2018-05-14T09:22:34.749Z,76.05
2018-05-14T09:23:44.225Z,76.15
2018-05-14T09:24:53.092Z,74.99
2018-05-14T09:26:01.958Z,73.63
2018-05-14T09:27:11.102Z,73.96
2018-05-14T09:28:19.972Z,75.51
2018-05-14T09:29:28.933Z,76.53
2018-05-14T09:30:38.077Z,74.79
2018-05-14T09:31:46.949Z,75.09
2018-05-14T09:32:56.091Z,76.92
2018-05-14T09:34:04.954Z,75.85
2018-05-14T09:35:13.917Z,74.41
2018-05-14T09:36:23.065Z,75.57
2018-05-14T09:37:31.928Z,76.05
2018-05-14T09:38:40.793Z,73.63
2018-05-14T09:39:49.658Z,72.9
2018-05-14T09:40:58.874Z,72.8
2018-05-14T09:42:08.017Z,73.38
2018-05-14T09:43:17.164Z,74
2018-05-14T09:44:26.365Z,73
2018-05-14T09:45:35.177Z,72.36
2018-05-14T09:46:44.394Z,73.52
2018-05-14T09:47:53.259Z,73.48
2018-05-14T09:49:02.406Z,72.32
2018-05-14T09:50:11.548Z,71.78
2018-05-14T09:51:20.415Z,72.64
2018-05-14T09:52:29.379Z,72.45
2018-05-14T09:53:38.245Z,70.32
2018-05-14T09:54:47.111Z,69.74
2018-05-14T09:55:55.983Z,70.52
2018-05-14T09:57:05.129Z,69.78
2018-05-14T09:58:14.043Z,69.2
2018-05-14T09:59:22.909Z,70.56
2018-05-14T10:00:31.776Z,68.33
2018-05-14T10:01:40.922Z,68.75
2018-05-14T10:02:49.788Z,66.82
2018-05-14T10:03:58.652Z,62.21
2018-05-14T10:05:07.520Z,61.43
2018-05-14T10:06:16.390Z,63.21
2018-05-14T10:07:25.259Z,62.34
2018-05-14T10:08:34.124Z,62.24
2018-05-14T10:09:43.648Z,64.95
2018-05-14T10:10:52.800Z,64.82
2018-05-14T10:12:01.663Z,64.62
2018-05-14T10:13:10.805Z,65.01
2018-05-14T10:14:19.954Z,64.79
2018-05-14T10:15:29.151Z,64.01
2018-05-14T10:16:38.198Z,61.89
2018-05-14T10:17:46.884Z,63.76
2018-05-14T10:18:55.750Z,59.31
2018-05-14T10:20:04.619Z,57.59
2018-05-14T10:21:13.486Z,59.14
2018-05-14T10:22:22.351Z,55.56
2018-05-14T10:23:31.215Z,56.46
2018-05-14T10:24:40.156Z,56.56
2018-05-14T10:25:49.365Z,55.56
2018-05-14T10:26:58.583Z,56.34
2018-05-14T10:28:07.451Z,55.49
2018-05-14T10:29:16.325Z,56.94
2018-05-14T10:30:25.461Z,55.58
2018-05-14T10:31:34.329Z,56.52
2018-05-14T10:32:43.246Z,57.04
2018-05-14T10:33:52.112Z,58.11
2018-05-14T10:35:00.982Z,56.97
2018-05-14T10:36:09.846Z,56.39
2018-05-14T10:37:19.276Z,55.9
2018-05-14T10:38:28.145Z,57.29
2018-05-14T10:39:37.012Z,57.07
2018-05-14T10:40:45.952Z,57.84
2018-05-14T10:41:55.218Z,53.29
2018-05-14T10:43:04.086Z,53.09
2018-05-14T10:44:13.061Z,54.06
2018-05-14T10:45:22.493Z,52.9
2018-05-14T10:46:31.358Z,53
2018-05-14T10:47:40.509Z,53.39
2018-05-14T10:48:49.371Z,52.42
2018-05-14T10:49:58.243Z,52.9
2018-05-14T10:51:07.395Z,50.99
2018-05-14T10:52:16.273Z,51.57
2018-05-14T10:53:25.134Z,52.95
2018-05-14T10:54:34.282Z,49.82
2018-05-14T10:55:43.395Z,48.88
2018-05-14T10:56:52.266Z,48.2
2018-05-14T10:58:01.409Z,48
2018-05-14T10:59:10.288Z,49.46
2018-05-14T11:00:19.153Z,50.43
2018-05-14T11:01:28.351Z,49.07
2018-05-14T11:02:37.498Z,47.3
2018-05-14T11:03:46.365Z,47.91
2018-05-14T11:04:55.510Z,46.84
2018-05-14T11:06:04.377Z,47.72
2018-05-14T11:07:13.395Z,48
2018-05-14T11:08:22.539Z,48.13
2018-05-14T11:09:31.406Z,49.29
2018-05-14T11:10:40.342Z,49.87
2018-05-14T11:11:49.141Z,49.19
2018-05-14T11:12:58.335Z,48.42
2018-05-14T11:14:07.202Z,47.45
2018-05-14T11:15:16.070Z,48.25
2018-05-14T11:16:25.215Z,47.35
2018-05-14T11:17:34.369Z,47.83
2018-05-14T11:18:43.288Z,47.64
2018-05-14T11:19:52.154Z,47.93
2018-05-14T11:21:01.301Z,47.06
2018-05-14T11:22:10.168Z,45.43
2018-05-14T11:23:19.315Z,45.04
2018-05-14T11:24:28.182Z,45.55
2018-05-14T11:25:37.050Z,46.21
2018-05-14T11:26:45.917Z,46.69
2018-05-14T11:27:54.792Z,46.89
2018-05-14T11:29:03.652Z,44.75
2018-05-14T11:30:12.569Z,44.78
2018-05-14T11:31:21.436Z,44.41
2018-05-14T11:32:30.306Z,42.64
2018-05-14T11:33:39.168Z,42.54
2018-05-14T11:34:48.044Z,42.85
2018-05-14T11:35:57.061Z,41.88
2018-05-14T11:37:06.204Z,45.18
2018-05-14T11:38:15.072Z,43.71
2018-05-14T11:39:24.223Z,43.92
2018-05-14T11:40:33.923Z,44.41
2018-05-14T11:41:43.141Z,42.85
2018-05-14T11:42:52.013Z,43.05
2018-05-14T11:44:00.884Z,43.34
2018-05-14T11:45:09.748Z,41.8
2018-05-14T11:46:18.616Z,41.22
2018-05-14T11:47:27.635Z,42.27
2018-05-14T11:48:36.503Z,42.19
2018-05-14T11:49:45.369Z,44.04
2018-05-14T11:50:54.363Z,42.87
2018-05-14T11:52:03.399Z,42.49
2018-05-14T11:53:12.337Z,42.39
2018-05-14T11:54:21.492Z,42.11
2018-05-14T11:55:30.638Z,41.83
2018-05-14T11:56:39.511Z,41.44
2018-05-14T11:57:48.672Z,40.95
2018-05-14T11:58:57.866Z,40.56
2018-05-14T12:00:07.014Z,40.17
2018-05-14T12:01:15.887Z,44.06
2018-05-14T12:02:25.041Z,42.9
2018-05-14T12:03:33.911Z,43.48
2018-05-14T12:04:42.934Z,42.8
2018-05-14T12:05:52.086Z,40.37
2018-05-14T12:07:01.235Z,40.58
2018-05-14T12:08:10.382Z,39.41
2018-05-14T12:09:19.254Z,40.09
2018-05-14T12:10:28.278Z,40
2018-05-14T12:11:37.151Z,40.58
2018-05-14T12:12:46.026Z,39.7
2018-05-14T12:13:55.180Z,40.66
2018-05-14T12:15:04.053Z,41.05
2018-05-14T12:16:13.084Z,41.24
2018-05-14T12:17:22.663Z,42
2018-05-14T12:18:31.532Z,42.7
2018-05-14T12:19:40.404Z,42.7
2018-05-14T12:20:49.277Z,42.6
2018-05-14T12:21:58.298Z,42.24
2018-05-14T12:23:07.173Z,41.65
2018-05-14T12:24:16.050Z,41.94
2018-05-14T12:25:25.215Z,41.77
2018-05-14T12:26:34.095Z,41.38
2018-05-14T12:27:43.070Z,41.79
2018-05-14T12:28:51.948Z,41.38
2018-05-14T12:30:00.818Z,41.06
2018-05-14T12:31:09.691Z,43.7
2018-05-14T12:32:18.566Z,44.06
2018-05-14T12:33:27.439Z,43.89
2018-05-14T12:34:36.328Z,42.14
2018-05-14T12:35:45.762Z,41.55
2018-05-14T12:36:54.913Z,41.55
2018-05-14T12:38:03.798Z,42.94
2018-05-14T12:39:12.997Z,43.43
2018-05-14T12:40:21.876Z,42.45
2018-05-14T12:41:31.030Z,41.67
2018-05-14T12:42:39.908Z,41.79
2018-05-14T12:43:48.784Z,40.72
2018-05-14T12:44:57.760Z,40.8
2018-05-14T12:46:07.004Z,40.72
2018-05-14T12:47:16.202Z,41.01
2018-05-14T12:48:25.076Z,41.11
2018-05-14T12:49:33.950Z,39.72
2018-05-14T12:50:42.976Z,40.99
2018-05-14T12:51:52.446Z,42.04
2018-05-14T12:53:01.980Z,40.8
2018-05-14T12:54:11.131Z,40.7
2018-05-14T12:55:20.287Z,40.5
2018-05-14T12:56:29.662Z,39.72
2018-05-14T12:57:38.540Z,39.16
2018-05-14T12:58:47.413Z,39.65
2018-05-14T12:59:56.287Z,39.84
2018-05-14T13:01:05.448Z,40.83
2018-05-14T13:02:14.749Z,42.3
2018-05-14T13:03:23.627Z,41.13
2018-05-14T13:04:32.505Z,40.56
2018-05-14T13:05:41.383Z,39.69
2018-05-14T13:06:50.260Z,39.59
2018-05-14T13:07:59.238Z,39.88
2018-05-14T13:09:08.118Z,39.2
2018-05-14T13:10:17.271Z,39.88
2018-05-14T13:11:26.153Z,39.69
2018-05-14T13:12:35.034Z,39.22
2018-05-14T13:13:43.912Z,39.7
2018-05-14T13:14:53.356Z,40.68
2018-05-14T13:16:02.234Z,40.68
2018-05-14T13:17:11.116Z,40.19
2018-05-14T13:18:20.282Z,40.48
2018-05-14T13:19:29.262Z,40.88
2018-05-14T13:20:38.416Z,40.68
2018-05-14T13:21:47.294Z,40.8
2018-05-14T13:22:56.171Z,40.68
2018-05-14T13:24:05.046Z,42.07
2018-05-14T13:25:14.072Z,41.07
2018-05-14T13:26:22.948Z,41.66
2018-05-14T13:27:31.825Z,41.46
2018-05-14T13:28:40.811Z,41.73
2018-05-14T13:29:49.692Z,41.25
2018-05-14T13:30:58.906Z,42
2018-05-14T13:32:08.072Z,42.79
2018-05-14T13:33:17.324Z,42.08
2018-05-14T13:34:26.198Z,42.47
2018-05-14T13:35:35.352Z,42.06
2018-05-14T13:36:44.558Z,42.55
2018-05-14T13:37:53.550Z,42.45
2018-05-14T13:39:02.708Z,42.55
2018-05-14T13:40:11.582Z,43.04
2018-05-14T13:41:20.732Z,43.62
2018-05-14T13:42:29.931Z,44.38
2018-05-14T13:43:38.801Z,43.89
2018-05-14T13:44:47.952Z,43.79
2018-05-14T13:45:57.104Z,43.89
2018-05-14T13:47:06.258Z,44.16
2018-05-14T13:48:15.279Z,44.38
2018-05-14T13:49:24.431Z,44.57
2018-05-14T13:50:33.301Z,43.81
2018-05-14T13:51:42.174Z,44.62
2018-05-14T13:52:51.325Z,45.1
2018-05-14T13:54:00.299Z,43.66
2018-05-14T13:55:09.449Z,43.39
2018-05-14T13:56:18.600Z,43.59
2018-05-14T13:57:27.557Z,42.34
2018-05-14T13:58:36.353Z,42.07
2018-05-14T13:59:45.872Z,42.07
2018-05-14T14:00:54.750Z,41.6
2018-05-14T14:02:03.954Z,41.99
2018-05-14T14:03:13.118Z,41.42
2018-05-14T14:04:22.272Z,40.84
2018-05-14T14:05:31.429Z,41.25
2018-05-14T14:06:40.308Z,40.66
2018-05-14T14:07:49.193Z,38.71
2018-05-14T14:08:58.069Z,39.7
2018-05-14T14:10:06.949Z,39.7
2018-05-14T14:11:15.978Z,39.12
2018-05-14T14:12:24.869Z,38.55
2018-05-14T14:13:34.034Z,38.2
2018-05-14T14:14:43.195Z,37.21
2018-05-14T14:15:52.353Z,36.8
2018-05-14T14:17:01.479Z,36.33
2018-05-14T14:18:10.662Z,36.72
2018-05-14T14:19:20.102Z,37.63
2018-05-14T14:20:29.264Z,36.74
2018-05-14T14:21:38.511Z,35.86
2018-05-14T14:22:47.496Z,35.17
2018-05-14T14:23:56.642Z,35.94
2018-05-14T14:25:07.152Z,36.12
2018-05-14T14:26:16.311Z,36.1
2018-05-14T14:27:25.472Z,36
2018-05-14T14:28:34.610Z,35.93
2018-05-14T14:29:43.597Z,35.52
2018-05-14T14:30:52.777Z,35.83
2018-05-14T14:32:01.937Z,36.22
2018-05-14T14:33:10.821Z,36.49
2018-05-14T14:34:20.032Z,36.69
2018-05-14T14:35:29.196Z,37.08
2018-05-14T14:36:38.076Z,36.98
2018-05-14T14:37:46.959Z,37.57
2018-05-14T14:38:55.841Z,36.38
2018-05-14T14:40:05.010Z,37.54
2018-05-14T14:41:14.169Z,36.36
2018-05-14T14:42:23.053Z,36.72
2018-05-14T14:43:31.932Z,36.78
2018-05-14T14:44:40.807Z,37.07
2018-05-14T14:45:49.737Z,36.98
2018-05-14T14:46:58.614Z,36.88
2018-05-14T14:48:07.501Z,37.65
2018-05-14T14:49:16.656Z,37.46
2018-05-14T14:50:25.810Z,37.54
2018-05-14T14:51:34.736Z,38.12
2018-05-14T14:52:43.609Z,39.29